createdAt,value
2024-05-09T00:02:16.227Z,58.98
2024-05-09T00:04:48.456Z,59.32
2024-05-09T00:07:21.114Z,59.55
2024-05-09T00:09:53.408Z,59.59
2024-05-09T00:12:25.740Z,59.67
2024-05-09T00:14:58.244Z,59.80
2024-05-09T00:17:31.003Z,60.03
2024-05-09T00:20:05.309Z,60.24
2024-05-09T00:22:41.495Z,60.46
2024-05-09T00:25:13.652Z,60.52
2024-05-09T00:27:45.807Z,60.54
2024-05-09T00:30:24.473Z,60.56
2024-05-09T00:33:05.698Z,60.63
2024-05-09T00:35:39.366Z,60.77
2024-05-09T00:38:12.078Z,60.98
2024-05-09T00:40:46.502Z,60.97
2024-05-09T00:43:18.991Z,61.38
2024-05-09T00:45:50.999Z,61.61
2024-05-09T00:48:23.273Z,61.68
2024-05-09T00:50:57.666Z,61.85
2024-05-09T00:53:30.538Z,61.97
2024-05-09T00:56:03.128Z,62.16
2024-05-09T00:58:35.416Z,62.21
2024-05-09T01:01:09.394Z,62.31
2024-05-09T01:03:41.833Z,62.27
2024-05-09T01:06:15.007Z,62.43
2024-05-09T01:08:47.241Z,62.47
2024-05-09T01:11:20.218Z,62.32
2024-05-09T01:13:52.526Z,62.29
2024-05-09T01:16:24.529Z,62.26
2024-05-09T01:18:56.713Z,62.39
2024-05-09T01:21:29.007Z,62.57
2024-05-09T01:24:01.387Z,62.63
2024-05-09T01:26:33.616Z,62.59
2024-05-09T01:29:05.901Z,62.78
2024-05-09T01:31:37.903Z,62.91
2024-05-09T01:34:10.392Z,63.13
2024-05-09T01:36:42.717Z,63.27
2024-05-09T01:39:14.946Z,63.58
2024-05-09T01:41:47.208Z,63.63
2024-05-09T01:44:19.582Z,63.82
2024-05-09T01:46:51.877Z,63.69
2024-05-09T01:49:24.413Z,63.61
2024-05-09T01:51:56.574Z,63.77
2024-05-09T01:54:28.586Z,63.80
2024-05-09T01:57:00.609Z,64.10
2024-05-09T01:59:32.864Z,64.16
2024-05-09T02:02:05.808Z,64.02
2024-05-09T02:04:38.002Z,63.87
2024-05-09T02:07:10.243Z,63.89
2024-05-09T02:09:43.198Z,63.92
2024-05-09T02:12:15.214Z,63.78
2024-05-09T02:14:47.403Z,63.81
2024-05-09T02:17:19.487Z,63.83
2024-05-09T02:19:51.537Z,64.10
2024-05-09T02:22:23.588Z,64.34
2024-05-09T02:24:55.584Z,64.55
2024-05-09T02:27:27.599Z,64.72
2024-05-09T02:29:59.525Z,64.65
2024-05-09T02:32:31.906Z,64.69
2024-05-09T02:35:04.062Z,64.83
2024-05-09T02:37:35.924Z,65.02
2024-05-09T02:40:14.551Z,65.00
2024-05-09T02:42:50.022Z,64.90
2024-05-09T02:45:22.048Z,64.74
2024-05-09T02:47:54.428Z,64.55
2024-05-09T02:50:34.188Z,64.81
2024-05-09T02:53:10.699Z,65.11
2024-05-09T02:55:43.611Z,65.43
2024-05-09T02:58:16.223Z,65.70
2024-05-09T03:00:48.509Z,65.91
2024-05-09T03:03:21.330Z,66.03
2024-05-09T03:05:53.722Z,66.06
2024-05-09T03:08:27.993Z,66.11
2024-05-09T03:10:59.945Z,66.15
2024-05-09T03:13:32.402Z,66.21
2024-05-09T03:16:04.951Z,66.17
2024-05-09T03:18:37.347Z,66.26
2024-05-09T03:21:10.349Z,66.44
2024-05-09T03:23:43.770Z,66.76
2024-05-09T03:26:17.475Z,67.17
2024-05-09T03:28:49.699Z,67.84
2024-05-09T03:31:23.414Z,68.17
2024-05-09T03:33:55.426Z,68.18
2024-05-09T03:36:27.639Z,68.18
2024-05-09T03:39:00.152Z,68.16
2024-05-09T03:41:33.791Z,68.06
2024-05-09T03:44:06.714Z,67.86
2024-05-09T03:46:42.024Z,68.05
2024-05-09T03:49:14.679Z,68.24
2024-05-09T03:51:47.199Z,68.38
2024-05-09T03:54:19.457Z,68.72
2024-05-09T03:56:51.705Z,69.00
2024-05-09T03:59:23.838Z,69.18
2024-05-09T04:01:56.629Z,69.22
2024-05-09T04:04:29.885Z,69.44
2024-05-09T04:07:02.294Z,69.69
2024-05-09T04:09:34.729Z,70.01
2024-05-09T04:12:09.083Z,69.83
2024-05-09T04:14:42.919Z,69.65
2024-05-09T04:17:14.811Z,69.55
2024-05-09T04:19:47.034Z,69.51
2024-05-09T04:22:19.146Z,68.69
2024-05-09T04:24:52.792Z,68.02
2024-05-09T04:27:24.851Z,67.50
2024-05-09T04:29:57.646Z,66.91
2024-05-09T04:32:30.125Z,66.49
2024-05-09T04:35:02.619Z,65.99
2024-05-09T04:37:34.997Z,65.54
2024-05-09T04:40:14.166Z,65.15
2024-05-09T04:42:52.864Z,64.63
2024-05-09T04:45:25.072Z,64.29
2024-05-09T04:47:57.922Z,64.01
2024-05-09T04:50:36.744Z,63.47
2024-05-09T04:53:16.168Z,62.92
2024-05-09T04:55:48.386Z,62.89
2024-05-09T04:58:20.398Z,62.93
2024-05-09T05:00:52.495Z,62.72
2024-05-09T05:03:24.946Z,62.31
2024-05-09T05:05:57.733Z,62.13
2024-05-09T05:08:29.866Z,61.80
2024-05-09T05:11:02.824Z,61.55
2024-05-09T05:13:38.645Z,61.62
2024-05-09T05:16:12.396Z,61.31
2024-05-09T05:18:44.849Z,60.98
2024-05-09T05:21:17.049Z,60.55
2024-05-09T05:23:51.970Z,59.84
2024-05-09T05:26:27.708Z,59.86
2024-05-09T05:29:00.144Z,59.52
2024-05-09T05:31:32.302Z,58.36
2024-05-09T05:34:04.366Z,56.71
2024-05-09T05:36:36.811Z,56.53
2024-05-09T05:39:09.382Z,56.33
2024-05-09T05:41:41.814Z,56.02
2024-05-09T05:44:15.858Z,54.79
2024-05-09T05:46:48.064Z,53.86
2024-05-09T05:49:20.658Z,53.15
2024-05-09T05:51:52.810Z,52.68
2024-05-09T05:54:27.699Z,52.58
2024-05-09T05:57:00.686Z,52.17
2024-05-09T05:59:33.105Z,52.11
2024-05-09T06:02:07.096Z,52.11
2024-05-09T06:04:39.299Z,51.82
2024-05-09T06:07:12.027Z,50.89
2024-05-09T06:09:46.043Z,50.85
2024-05-09T06:12:20.328Z,50.29
2024-05-09T06:14:52.590Z,50.36
2024-05-09T06:17:25.480Z,50.37
2024-05-09T06:19:58.250Z,50.24
2024-05-09T06:22:30.909Z,49.30
2024-05-09T06:25:13.344Z,48.91
2024-05-09T06:27:55.943Z,49.27
2024-05-09T06:30:36.906Z,49.60
2024-05-09T06:33:22.686Z,49.62
2024-05-09T06:35:59.363Z,48.73
2024-05-09T06:38:32.748Z,47.96
2024-05-09T06:41:05.969Z,47.74
2024-05-09T06:43:38.767Z,48.16
2024-05-09T06:46:11.133Z,48.61
2024-05-09T06:48:45.472Z,48.92
2024-05-09T06:51:21.283Z,48.28
2024-05-09T06:53:53.653Z,46.54
2024-05-09T06:56:27.782Z,45.61
2024-05-09T06:59:00.097Z,46.29
2024-05-09T07:01:32.420Z,46.05
2024-05-09T07:04:07.987Z,45.31
2024-05-09T07:06:43.031Z,46.09
2024-05-09T07:09:14.991Z,45.37
2024-05-09T07:11:49.515Z,45.33
2024-05-09T07:14:22.173Z,45.52
2024-05-09T07:16:54.637Z,45.61
2024-05-09T07:19:26.879Z,44.68
2024-05-09T07:21:59.924Z,44.02
2024-05-09T07:24:34.814Z,44.26
2024-05-09T07:27:07.544Z,44.09
2024-05-09T07:29:40.086Z,43.99
2024-05-09T07:32:12.925Z,42.91
2024-05-09T07:34:45.800Z,42.73
2024-05-09T07:37:18.420Z,42.63
2024-05-09T07:39:50.709Z,42.78
2024-05-09T07:42:22.932Z,42.66
2024-05-09T07:44:56.940Z,41.90
2024-05-09T07:48:57.368Z,41.43
2024-05-09T07:53:36.007Z,42.04
2024-05-09T07:55:56.961Z,41.50
2024-05-09T07:58:29.409Z,40.95
2024-05-09T08:01:05.967Z,41.55
2024-05-09T08:03:39.786Z,41.18
2024-05-09T08:06:22.517Z,40.28
2024-05-09T08:09:00.883Z,40.54
2024-05-09T08:11:38.838Z,40.23
2024-05-09T08:14:11.204Z,40.62
2024-05-09T08:16:43.497Z,40.00
2024-05-09T08:19:19.194Z,37.77
2024-05-09T08:21:51.480Z,38.39
2024-05-09T08:24:36.612Z,39.49
2024-05-09T08:27:08.876Z,39.56
2024-05-09T08:29:41.450Z,39.52
2024-05-09T08:32:13.958Z,40.23
2024-05-09T08:34:46.494Z,38.85
2024-05-09T08:37:22.427Z,39.21
2024-05-09T08:39:57.449Z,38.24
2024-05-09T08:42:35.389Z,37.13
2024-05-09T08:45:10.630Z,37.00
2024-05-09T08:47:43.865Z,37.15
2024-05-09T08:50:28.933Z,36.92
2024-05-09T08:53:08.492Z,34.80
2024-05-09T08:55:43.428Z,35.36
2024-05-09T08:58:20.474Z,36.43
2024-05-09T09:00:53.724Z,36.69
2024-05-09T09:03:31.798Z,36.40
2024-05-09T09:06:07.888Z,35.44
2024-05-09T09:08:41.404Z,35.43
2024-05-09T09:11:13.760Z,33.64
2024-05-09T09:13:46.163Z,33.57
2024-05-09T09:16:18.597Z,34.45
2024-05-09T09:18:51.422Z,34.92
2024-05-09T09:21:24.959Z,34.34
2024-05-09T09:24:00.378Z,34.45
2024-05-09T09:26:34.187Z,34.80
2024-05-09T09:29:06.367Z,35.34
2024-05-09T09:31:39.278Z,35.19
2024-05-09T09:34:11.741Z,34.90
2024-05-09T09:36:48.935Z,33.45
2024-05-09T09:39:23.920Z,33.25
2024-05-09T09:41:59.783Z,32.35
2024-05-09T09:44:33.067Z,32.55
2024-05-09T09:47:07.112Z,33.80
2024-05-09T09:49:40.818Z,33.94
2024-05-09T09:52:16.563Z,34.13
2024-05-09T09:54:51.090Z,33.93
2024-05-09T09:57:24.945Z,34.52
2024-05-09T09:59:58.509Z,35.02
2024-05-09T10:02:33.984Z,33.45
2024-05-09T10:05:06.856Z,34.06
2024-05-09T10:07:42.991Z,33.97
2024-05-09T10:10:31.567Z,33.34
2024-05-09T10:13:06.492Z,33.66
2024-05-09T10:15:47.981Z,33.40
2024-05-09T10:18:26.105Z,33.57
2024-05-09T10:21:00.280Z,34.13
2024-05-09T10:23:34.471Z,32.22
2024-05-09T10:26:07.620Z,31.60
2024-05-09T10:28:45.769Z,32.36
2024-05-09T10:31:21.381Z,32.37
2024-05-09T10:33:57.355Z,31.97
2024-05-09T10:36:29.821Z,31.82
2024-05-09T10:39:05.328Z,31.47
2024-05-09T10:41:40.811Z,31.68
2024-05-09T10:44:17.209Z,32.05
2024-05-09T10:46:50.316Z,31.91
2024-05-09T10:49:32.887Z,31.64
2024-05-09T10:52:06.461Z,32.05
2024-05-09T10:54:42.068Z,32.02
2024-05-09T10:57:14.345Z,31.63
2024-05-09T10:59:46.520Z,31.54
2024-05-09T11:02:20.103Z,31.85
2024-05-09T11:04:52.939Z,33.05
2024-05-09T11:07:29.188Z,33.37
2024-05-09T11:10:02.978Z,32.25
2024-05-09T11:12:36.014Z,32.44
2024-05-09T11:15:11.044Z,31.93
2024-05-09T11:17:43.437Z,31.67
2024-05-09T11:20:22.903Z,32.17
2024-05-09T11:23:05.138Z,31.94
2024-05-09T11:25:41.174Z,31.73
2024-05-09T11:28:15.344Z,31.85
2024-05-09T11:30:52.063Z,31.79
2024-05-09T11:33:29.916Z,31.64
2024-05-09T11:36:02.807Z,32.64
2024-05-09T11:38:35.228Z,31.68
2024-05-09T11:41:07.720Z,31.76
2024-05-09T11:43:40.045Z,31.90
2024-05-09T11:46:15.372Z,31.73
2024-05-09T11:48:48.135Z,31.92
2024-05-09T11:51:23.697Z,31.86
2024-05-09T11:53:56.146Z,31.90
2024-05-09T11:56:28.555Z,32.39
2024-05-09T11:59:00.725Z,32.21
2024-05-09T12:01:33.129Z,32.94
2024-05-09T12:04:15.758Z,32.85
2024-05-09T12:06:48.237Z,32.84
2024-05-09T12:09:20.862Z,33.38
2024-05-09T12:11:53.110Z,33.12
2024-05-09T12:14:28.504Z,32.73
2024-05-09T12:17:11.239Z,32.39
2024-05-09T12:19:43.875Z,32.60
2024-05-09T12:22:16.680Z,31.80
2024-05-09T12:24:51.388Z,32.09
2024-05-09T12:27:24.044Z,31.90
2024-05-09T12:29:59.709Z,32.25
2024-05-09T12:32:52.127Z,32.85
2024-05-09T12:35:28.098Z,33.27
2024-05-09T12:38:00.651Z,32.93
2024-05-09T12:40:36.873Z,32.56
2024-05-09T12:43:13.273Z,33.02
2024-05-09T12:45:45.653Z,32.81
2024-05-09T12:48:20.987Z,32.41
2024-05-09T12:50:54.912Z,32.36
2024-05-09T12:53:27.001Z,32.30
2024-05-09T12:56:02.376Z,32.64
2024-05-09T12:58:36.000Z,32.36
2024-05-09T13:01:08.554Z,32.14
2024-05-09T13:03:43.925Z,32.06
2024-05-09T13:06:16.176Z,32.35
2024-05-09T13:08:48.405Z,32.88
2024-05-09T13:11:20.505Z,33.12
2024-05-09T13:13:52.796Z,31.78
2024-05-09T13:16:25.591Z,31.62
2024-05-09T13:18:58.249Z,31.77
2024-05-09T13:21:30.744Z,32.73
2024-05-09T13:24:03.383Z,33.25
2024-05-09T13:26:35.798Z,33.15
2024-05-09T13:29:08.351Z,33.63
2024-05-09T13:31:40.627Z,34.22
2024-05-09T13:34:12.669Z,34.11
2024-05-09T13:36:44.797Z,33.58
2024-05-09T13:39:16.751Z,32.98
2024-05-09T13:41:48.909Z,32.36
2024-05-09T13:44:20.920Z,32.21
2024-05-09T13:46:53.537Z,32.30
2024-05-09T13:49:25.625Z,32.13
2024-05-09T13:51:57.871Z,31.69
2024-05-09T13:54:30.023Z,32.25
2024-05-09T13:57:03.164Z,32.17
2024-05-09T13:59:35.128Z,32.31
2024-05-09T14:02:07.748Z,32.59
2024-05-09T14:04:40.406Z,32.49
2024-05-09T14:07:13.325Z,32.36
2024-05-09T14:09:47.063Z,33.04
2024-05-09T14:12:19.505Z,33.40
2024-05-09T14:14:51.526Z,33.18
2024-05-09T14:17:24.281Z,32.26
2024-05-09T14:19:57.199Z,32.46
2024-05-09T14:22:29.931Z,32.46
2024-05-09T14:25:02.860Z,32.29
2024-05-09T14:27:35.463Z,31.79
2024-05-09T14:30:15.061Z,31.58
2024-05-09T14:32:55.285Z,31.85
2024-05-09T14:35:27.706Z,31.96
2024-05-09T14:38:00.496Z,31.97
2024-05-09T14:40:40.750Z,32.02
2024-05-09T14:43:19.790Z,31.76
2024-05-09T14:45:53.564Z,32.21
2024-05-09T14:48:26.959Z,32.12
2024-05-09T14:50:58.996Z,32.55
2024-05-09T14:53:31.336Z,31.83
2024-05-09T14:56:03.552Z,31.54
2024-05-09T14:58:35.719Z,32.38
2024-05-09T15:01:07.879Z,33.16
2024-05-09T15:03:40.824Z,32.79
2024-05-09T15:06:13.282Z,32.76
2024-05-09T15:08:45.502Z,31.91
2024-05-09T15:11:17.953Z,31.96
2024-05-09T15:13:50.641Z,32.07
2024-05-09T15:16:35.077Z,31.89
2024-05-09T15:19:07.601Z,32.17
2024-05-09T15:21:40.067Z,32.44
2024-05-09T15:24:12.831Z,32.58
2024-05-09T15:26:45.548Z,32.47
2024-05-09T15:29:17.926Z,32.43
2024-05-09T15:31:50.250Z,32.06
2024-05-09T15:34:22.553Z,31.88
2024-05-09T15:36:55.330Z,32.03
2024-05-09T15:39:30.135Z,32.33
2024-05-09T15:42:05.788Z,32.37
2024-05-09T15:44:38.003Z,32.29
2024-05-09T15:47:10.029Z,32.49
2024-05-09T15:49:42.748Z,32.33
2024-05-09T15:52:15.773Z,32.42
2024-05-09T15:54:50.317Z,32.38
2024-05-09T15:57:23.490Z,32.63
2024-05-09T15:59:55.633Z,32.36
2024-05-09T16:02:28.010Z,32.56
2024-05-09T16:05:00.949Z,32.28
2024-05-09T16:07:37.244Z,32.37
2024-05-09T16:10:13.196Z,32.47
2024-05-09T16:12:48.743Z,32.47
2024-05-09T16:15:21.084Z,32.37
2024-05-09T16:17:53.916Z,32.29
2024-05-09T16:20:49.387Z,32.38
2024-05-09T16:23:22.950Z,32.59
2024-05-09T16:25:55.384Z,32.98
2024-05-09T16:28:28.347Z,33.18
2024-05-09T16:31:01.558Z,32.78
2024-05-09T16:33:33.862Z,32.52
2024-05-09T16:36:07.110Z,32.58
2024-05-09T16:38:40.908Z,32.74
2024-05-09T16:41:14.993Z,32.64
2024-05-09T16:43:47.122Z,32.73
2024-05-09T16:46:31.879Z,32.97
2024-05-09T16:49:05.760Z,33.05
2024-05-09T16:51:38.245Z,32.87
2024-05-09T16:54:10.688Z,32.91
2024-05-09T16:56:43.236Z,32.87
2024-05-09T16:59:15.435Z,32.59
2024-05-09T17:01:47.611Z,32.99
2024-05-09T17:04:20.087Z,32.88
2024-05-09T17:06:52.770Z,32.82
2024-05-09T17:09:25.007Z,33.41
2024-05-09T17:11:57.632Z,33.04
2024-05-09T17:14:29.738Z,32.62
2024-05-09T17:17:01.960Z,31.80
2024-05-09T17:19:34.125Z,31.82
2024-05-09T17:22:06.508Z,31.22
2024-05-09T17:24:38.750Z,30.74
2024-05-09T17:27:11.583Z,30.52
2024-05-09T17:29:43.826Z,30.48
2024-05-09T17:32:16.313Z,30.36
2024-05-09T17:34:49.369Z,30.34
2024-05-09T17:37:21.902Z,30.10
2024-05-09T17:39:55.668Z,30.13
2024-05-09T17:42:28.145Z,30.54
2024-05-09T17:45:00.759Z,30.94
2024-05-09T17:47:33.036Z,30.90
2024-05-09T17:50:09.569Z,31.05
2024-05-09T17:52:43.707Z,31.63
2024-05-09T17:55:16.442Z,31.80
2024-05-09T17:57:48.846Z,31.78
2024-05-09T18:00:29.248Z,31.91
2024-05-09T18:03:12.064Z,32.27
2024-05-09T18:05:47.066Z,32.63
2024-05-09T18:08:19.812Z,33.03
2024-05-09T18:10:54.053Z,33.71
2024-05-09T18:13:29.041Z,34.32
2024-05-09T18:16:01.627Z,35.14
2024-05-09T18:18:33.767Z,35.66
2024-05-09T18:21:06.640Z,36.19
2024-05-09T18:23:38.567Z,36.68
2024-05-09T18:26:10.772Z,37.03
2024-05-09T18:28:43.486Z,37.63
2024-05-09T18:31:17.345Z,38.11
2024-05-09T18:33:50.851Z,38.71
2024-05-09T18:36:23.738Z,39.30
2024-05-09T18:38:56.284Z,39.82
2024-05-09T18:41:28.555Z,40.22
2024-05-09T18:44:01.052Z,40.46
2024-05-09T18:46:33.539Z,41.39
2024-05-09T18:49:05.792Z,42.00
2024-05-09T18:51:37.986Z,42.62
2024-05-09T18:54:09.914Z,43.08
2024-05-09T18:56:43.117Z,43.74
2024-05-09T18:59:15.616Z,44.24
2024-05-09T19:01:47.708Z,44.95
2024-05-09T19:04:20.191Z,45.02
2024-05-09T19:06:55.800Z,45.23
2024-05-09T19:09:28.171Z,45.97
2024-05-09T19:12:03.279Z,46.37
2024-05-09T19:14:35.441Z,46.75
2024-05-09T19:17:07.953Z,47.00
2024-05-09T19:19:40.638Z,47.11
2024-05-09T19:22:13.055Z,47.65
2024-05-09T19:24:45.578Z,48.23
2024-05-09T19:27:18.154Z,48.34
2024-05-09T19:29:52.261Z,48.57
2024-05-09T19:32:26.465Z,49.14
2024-05-09T19:34:59.890Z,49.41
2024-05-09T19:37:32.650Z,49.61
2024-05-09T19:40:08.534Z,49.88
2024-05-09T19:42:45.583Z,50.29
2024-05-09T19:45:18.291Z,50.56
2024-05-09T19:47:50.915Z,50.88
2024-05-09T19:50:31.904Z,51.08
2024-05-09T19:53:23.504Z,51.47
2024-05-09T19:55:57.937Z,51.66
2024-05-09T19:58:30.940Z,51.71
2024-05-09T20:01:03.832Z,52.06
2024-05-09T20:03:38.445Z,52.23
2024-05-09T20:06:10.909Z,52.37
2024-05-09T20:08:43.333Z,52.52
2024-05-09T20:11:17.763Z,52.81
2024-05-09T20:13:49.836Z,53.01
2024-05-09T20:16:22.215Z,53.12
2024-05-09T20:18:54.583Z,53.29
2024-05-09T20:21:29.805Z,53.59
2024-05-09T20:24:05.049Z,53.77
2024-05-09T20:26:37.316Z,54.03
2024-05-09T20:29:09.410Z,54.25
2024-05-09T20:31:44.087Z,54.43
2024-05-09T20:34:16.190Z,54.55
2024-05-09T20:36:51.816Z,54.70
2024-05-09T20:39:28.609Z,55.02
2024-05-09T20:42:03.271Z,55.38
2024-05-09T20:44:35.520Z,55.31
2024-05-09T20:47:07.938Z,55.46
2024-05-09T20:49:40.452Z,55.54
2024-05-09T20:52:12.717Z,55.78
2024-05-09T20:54:44.941Z,55.75
2024-05-09T20:57:16.949Z,55.94
2024-05-09T20:59:48.786Z,56.22
2024-05-09T21:02:21.592Z,56.35
2024-05-09T21:04:56.877Z,56.54
2024-05-09T21:07:29.625Z,56.77
2024-05-09T21:10:15.932Z,56.93
2024-05-09T21:12:54.711Z,57.14
2024-05-09T21:15:27.024Z,57.24
2024-05-09T21:17:59.869Z,57.33
2024-05-09T21:20:34.781Z,57.42
2024-05-09T21:23:07.908Z,57.69
2024-05-09T21:25:40.391Z,57.77
2024-05-09T21:28:14.696Z,57.93
2024-05-09T21:30:47.669Z,58.16
2024-05-09T21:33:20.150Z,58.69
2024-05-09T21:35:52.184Z,58.81
2024-05-09T21:38:24.605Z,58.94
2024-05-09T21:40:56.805Z,58.82
2024-05-09T21:43:31.471Z,59.01
2024-05-09T21:46:04.135Z,59.08
2024-05-09T21:48:37.037Z,59.20
2024-05-09T21:51:15.854Z,59.41
2024-05-09T21:53:47.887Z,59.59
2024-05-09T21:56:19.869Z,59.79
2024-05-09T21:58:54.413Z,59.86
2024-05-09T22:01:26.252Z,59.89
2024-05-09T22:03:58.412Z,59.97
2024-05-09T22:06:30.550Z,60.14
2024-05-09T22:09:05.050Z,60.21
2024-05-09T22:11:36.932Z,60.39
2024-05-09T22:14:09.000Z,60.42
2024-05-09T22:16:44.214Z,60.75
2024-05-09T22:19:16.754Z,60.73
2024-05-09T22:21:49.412Z,60.76
2024-05-09T22:24:21.631Z,60.70
2024-05-09T22:26:55.189Z,60.99
2024-05-09T22:29:27.561Z,61.08
2024-05-09T22:31:59.653Z,61.25
2024-05-09T22:34:32.294Z,61.46
2024-05-09T22:37:04.624Z,61.83
2024-05-09T22:39:37.026Z,61.85
2024-05-09T22:42:08.987Z,61.98
2024-05-09T22:44:41.715Z,62.05
2024-05-09T22:47:13.945Z,62.13
2024-05-09T22:49:46.156Z,62.28
2024-05-09T22:52:18.971Z,62.32
2024-05-09T22:54:51.203Z,62.62
2024-05-09T22:57:23.104Z,62.76
2024-05-09T22:59:55.712Z,62.95
2024-05-09T23:02:27.930Z,62.94
2024-05-09T23:05:00.064Z,63.09
2024-05-09T23:07:32.835Z,63.05
2024-05-09T23:10:12.948Z,63.14
2024-05-09T23:12:52.071Z,63.22
2024-05-09T23:15:24.370Z,63.13
2024-05-09T23:17:57.288Z,63.34
2024-05-09T23:20:36.969Z,63.59
2024-05-09T23:23:12.393Z,63.76
2024-05-09T23:25:44.514Z,63.89
2024-05-09T23:28:16.975Z,63.87
2024-05-09T23:30:49.266Z,64.04
2024-05-09T23:33:21.595Z,64.03
2024-05-09T23:35:53.843Z,64.03
2024-05-09T23:38:26.366Z,64.03
2024-05-09T23:40:58.389Z,64.11
2024-05-09T23:43:30.570Z,64.09
2024-05-09T23:46:02.884Z,64.12
2024-05-09T23:48:35.079Z,64.15
2024-05-09T23:51:07.390Z,64.26
2024-05-09T23:53:39.725Z,64.32
2024-05-09T23:56:14.259Z,64.18
2024-05-09T23:58:47.170Z,64.09
